Time;durP1;ratioP1;P1;durP2;ratioP2;P2;SDS_P1;SDS_P2;PMS_P1;PMS_P2;Temp;Humidity;BMP_temperature;BMP_pressure;BME280_temperature;BME280_humidity;BME280_pressure;Samples;Min_cycle;Max_cycle;Signal;HPM_P1;HPM_P2
2021/12/06 00:00:24;;;;;;;2.10;0.93;;;;;;;17.17;63.71;97359.34;3869125;23;20028;-53
2021/12/06 00:02:00;;;;;;;1.90;0.65;;;;;;;17.13;63.51;97355.50;3869179;23;20051;-54
2021/12/06 00:03:39;;;;;;;0.80;0.60;;;;;;;17.12;63.66;97359.19;3866554;22;20024;-55
2021/12/06 00:05:15;;;;;;;2.28;1.65;;;;;;;17.10;63.77;97347.88;3868348;23;20024;-54
2021/12/06 00:06:53;;;;;;;3.30;0.88;;;;;;;17.10;63.94;97347.88;3868743;23;20474;-53
2021/12/06 00:08:25;;;;;;;1.70;0.60;;;;;;;17.08;64.01;97349.97;3868600;23;20335;-60
2021/12/06 00:09:56;;;;;;;0.98;0.57;;;;;;;17.07;64.01;97353.69;3868307;23;20137;-56
2021/12/06 00:11:29;;;;;;;2.28;0.88;;;;;;;17.06;63.96;97356.59;3865096;23;20028;-57
2021/12/06 00:13:01;;;;;;;2.58;0.98;;;;;;;17.04;64.12;97351.47;3867838;22;20028;-55
2021/12/06 00:14:36;;;;;;;3.42;1.00;;;;;;;17.04;64.11;97354.13;3868522;23;20566;-57
2021/12/06 00:16:13;;;;;;;3.85;0.90;;;;;;;17.03;63.95;97360.56;3867703;23;20111;-54
2021/12/06 00:17:45;;;;;;;1.23;1.00;;;;;;;17.02;64.06;97366.13;3868895;23;20055;-53
2021/12/06 00:19:17;;;;;;;1.98;0.73;;;;;;;17.01;64.18;97364.50;3865656;23;20016;-55
2021/12/06 00:20:51;;;;;;;4.18;0.95;;;;;;;17.00;64.24;97366.34;3868828;23;20028;-55
2021/12/06 00:22:23;;;;;;;3.97;1.23;;;;;;;17.00;64.15;97369.03;3867447;23;20020;-59
2021/12/06 00:23:55;;;;;;;3.97;1.67;;;;;;;16.97;64.19;97367.63;3867370;22;20028;-56
2021/12/06 00:25:27;;;;;;;1.90;0.60;;;;;;;16.95;64.26;97372.38;3868227;23;20028;-50
2021/12/06 00:26:59;;;;;;;3.38;0.70;;;;;;;16.94;64.22;97369.94;3868234;23;20023;-54
2021/12/06 00:28:32;;;;;;;0.80;0.63;;;;;;;16.94;64.46;97369.94;3868674;23;20020;-54
2021/12/06 00:30:05;;;;;;;1.30;1.08;;;;;;;16.92;64.32;97370.16;3867262;23;20066;-55
2021/12/06 00:31:38;;;;;;;1.42;0.63;;;;;;;16.92;64.32;97367.47;3867720;23;20482;-54
2021/12/06 00:33:10;;;;;;;1.45;0.60;;;;;;;16.91;64.33;97375.72;3867781;22;20027;-54
2021/12/06 00:34:42;;;;;;;0.63;0.52;;;;;;;16.92;64.35;97372.00;3868471;23;20026;-53
2021/12/06 00:36:26;;;;;;;1.50;0.90;;;;;;;16.91;64.15;97373.88;3868670;23;20107;-54
2021/12/06 00:38:00;;;;;;;3.72;0.93;;;;;;;16.91;63.89;97383.75;3873137;23;20027;-56
2021/12/06 00:39:33;;;;;;;3.00;1.23;;;;;;;16.89;64.22;97378.63;3867996;23;20406;-54
2021/12/06 00:41:05;;;;;;;4.35;1.00;;;;;;;16.87;64.35;97382.56;3869197;23;20028;-56
2021/12/06 00:42:37;;;;;;;2.67;1.05;;;;;;;16.85;64.34;97380.09;3865564;23;20024;-55
2021/12/06 00:44:10;;;;;;;4.15;0.90;;;;;;;16.81;64.48;97376.25;3868385;22;20252;-58
2021/12/06 00:45:42;;;;;;;3.97;1.50;;;;;;;16.82;64.63;97377.06;3866522;23;20034;-55
2021/12/06 00:47:13;;;;;;;4.70;1.30;;;;;;;16.82;64.47;97382.41;3867418;23;20628;-54
2021/12/06 00:48:45;;;;;;;2.00;0.90;;;;;;;16.81;64.32;97378.09;3867350;23;20024;-52
2021/12/06 00:50:18;;;;;;;3.97;0.85;;;;;;;16.80;64.61;97385.31;3864990;23;20024;-55
2021/12/06 00:51:52;;;;;;;2.42;1.60;;;;;;;16.79;64.42;97382.84;3867323;23;20274;-50
2021/12/06 00:53:24;;;;;;;0.90;0.70;;;;;;;16.77;64.53;97382.25;3866230;22;20360;-55
2021/12/06 00:54:55;;;;;;;3.58;1.05;;;;;;;16.77;64.41;97376.91;3867647;23;20451;-56
2021/12/06 00:56:28;;;;;;;2.95;1.10;;;;;;;16.75;64.61;97375.25;3867582;23;20085;-55
2021/12/06 00:58:00;;;;;;;1.60;0.90;;;;;;;16.74;64.56;97384.31;3865819;23;20030;-53
2021/12/06 00:59:32;;;;;;;6.68;1.65;;;;;;;16.74;64.42;97380.81;3866816;23;20027;-54
2021/12/06 01:01:05;;;;;;;5.95;1.23;;;;;;;16.72;64.34;97381.03;3865830;23;20042;-54
2021/12/06 01:02:37;;;;;;;2.00;0.60;;;;;;;16.71;64.51;97382.06;3867779;23;20028;-56
2021/12/06 01:04:09;;;;;;;1.70;1.35;;;;;;;16.69;64.68;97375.31;3866741;22;20024;-57
2021/12/06 01:05:41;;;;;;;1.55;0.77;;;;;;;16.67;64.58;97380.06;3867465;23;20024;-56
2021/12/06 01:07:15;;;;;;;2.95;1.10;;;;;;;16.66;64.64;97376.59;3866950;23;20034;-57
2021/12/06 01:08:47;;;;;;;3.03;0.90;;;;;;;16.66;64.68;97379.25;3863904;23;20421;-59
2021/12/06 01:10:19;;;;;;;1.90;1.20;;;;;;;16.64;64.70;97381.31;3866853;23;20028;-56
2021/12/06 01:11:51;;;;;;;1.52;1.00;;;;;;;16.64;64.69;97381.31;3867874;23;20024;-54
2021/12/06 01:13:24;;;;;;;3.88;1.25;;;;;;;16.63;64.95;97390.41;3865567;22;20032;-56
2021/12/06 01:14:56;;;;;;;3.35;0.77;;;;;;;16.60;65.03;97393.50;3866968;23;20032;-56
2021/12/06 01:16:29;;;;;;;0.60;0.60;;;;;;;16.61;64.97;97394.34;3867533;23;20028;-59
2021/12/06 01:18:02;;;;;;;3.60;0.82;;;;;;;16.59;65.01;97399.91;3865238;23;20332;-54
2021/12/06 01:19:36;;;;;;;3.65;0.95;;;;;;;16.59;64.94;97402.59;3866840;23;20079;-55
2021/12/06 01:21:16;;;;;;;1.38;0.70;;;;;;;16.58;65.00;97403.63;3866628;23;20359;-54
2021/12/06 01:22:54;;;;;;;1.65;0.70;;;;;;;16.57;65.05;97404.66;3867111;23;20028;-54
2021/12/06 01:24:30;;;;;;;2.10;1.00;;;;;;;16.53;65.20;97398.94;3866074;23;20101;-59
2021/12/06 01:26:25;;;;;;;2.55;0.95;;;;;;;16.53;65.13;97411.50;3872378;23;20039;-54
2021/12/06 01:30:18;;;;;;;2.47;1.00;;;;;;;16.50;65.18;97414.63;3827815;23;20025;-60
2021/12/06 01:31:56;;;;;;;3.28;1.05;;;;;;;16.48;65.33;97414.00;3827717;23;20179;-56
2021/12/06 01:33:41;;;;;;;2.63;1.25;;;;;;;16.49;65.28;97418.31;3825549;23;20036;-53
2021/12/06 01:39:15;;;;;;;1.30;0.50;;;;;;;16.42;65.59;97422.91;3867290;23;20173;-52
2021/12/06 01:40:47;;;;;;;1.55;0.50;;;;;;;16.40;65.61;97425.81;3864199;23;20143;-51
2021/12/06 01:42:19;;;;;;;2.10;0.60;;;;;;;16.40;65.69;97428.47;3866460;23;20024;-52
2021/12/06 01:44:10;;;;;;;1.00;0.57;;;;;;;16.39;65.60;97431.38;3867574;22;20504;-51
2021/12/06 01:45:42;;;;;;;1.38;1.13;;;;;;;16.37;65.92;97441.47;3866217;23;20035;-53
2021/12/06 01:47:18;;;;;;;3.42;1.58;;;;;;;16.38;65.85;97443.09;3867258;23;20024;-55
2021/12/06 01:48:51;;;;;;;1.38;0.65;;;;;;;16.36;65.79;97443.34;3866487;23;20471;-58
2021/12/06 01:50:25;;;;;;;1.90;0.73;;;;;;;16.35;65.90;97444.38;3865679;23;20314;-55
2021/12/06 01:52:01;;;;;;;2.60;0.90;;;;;;;16.35;66.04;97448.91;3864207;23;20051;-54
2021/12/06 01:53:33;;;;;;;1.85;0.73;;;;;;;16.34;65.91;97448.09;3865490;22;20023;-55
2021/12/06 01:55:09;;;;;;;5.70;0.88;;;;;;;16.31;66.04;97441.31;3866778;23;20528;-55
2021/12/06 01:56:42;;;;;;;4.78;0.95;;;;;;;16.29;65.99;97446.06;3867982;23;20046;-56
2021/12/06 01:58:14;;;;;;;0.75;0.68;;;;;;;16.29;66.12;97447.91;3866504;23;20028;-53
2021/12/06 01:59:46;;;;;;;4.35;0.73;;;;;;;16.27;66.15;97440.13;3866953;23;20470;-54
2021/12/06 02:01:18;;;;;;;2.65;0.95;;;;;;;16.25;66.07;97447.53;3866107;23;20024;-58
2021/12/06 02:02:49;;;;;;;1.90;0.73;;;;;;;16.26;66.21;97451.84;3867193;22;20027;-55
2021/12/06 02:04:22;;;;;;;1.83;0.57;;;;;;;16.24;66.14;97445.91;3865165;23;20101;-57
2021/12/06 02:05:53;;;;;;;3.33;0.93;;;;;;;16.24;66.14;97450.41;3867735;23;20028;-55
2021/12/06 02:07:27;;;;;;;0.88;0.77;;;;;;;16.24;66.17;97451.25;3868495;23;20263;-56
2021/12/06 02:08:59;;;;;;;1.35;0.80;;;;;;;16.22;66.08;97447.16;3868114;23;20517;-51
2021/12/06 02:10:33;;;;;;;1.20;0.65;;;;;;;16.21;66.21;97445.50;3864545;23;20098;-53
2021/12/06 02:12:05;;;;;;;2.17;1.25;;;;;;;16.20;66.05;97442.00;3867602;23;20329;-56
2021/12/06 02:13:44;;;;;;;5.95;1.15;;;;;;;16.18;66.20;97440.59;3868018;22;20020;-49
2021/12/06 02:15:30;;;;;;;4.93;0.63;;;;;;;16.15;66.36;97441.84;3866295;23;20024;-58
2021/12/06 02:17:11;;;;;;;2.40;1.13;;;;;;;16.15;66.47;97446.38;3868494;23;20481;-52
2021/12/06 02:18:48;;;;;;;1.25;0.80;;;;;;;16.14;66.40;97440.22;3867809;23;20054;-56
2021/12/06 02:20:25;;;;;;;2.25;1.13;;;;;;;16.12;66.37;97442.28;3867887;23;20024;-52
2021/12/06 02:22:00;;;;;;;2.33;1.10;;;;;;;16.12;66.38;97442.28;3868772;23;20028;-56
2021/12/06 02:23:31;;;;;;;5.38;1.58;;;;;;;16.12;66.43;97434.25;3867309;22;20024;-55
2021/12/06 02:25:05;;;;;;;1.83;0.90;;;;;;;16.09;66.35;97430.16;3868408;23;20385;-53
2021/12/06 02:26:40;;;;;;;3.97;0.85;;;;;;;16.09;66.33;97435.50;3867487;23;20074;-57
2021/12/06 02:28:12;;;;;;;1.45;0.85;;;;;;;16.08;66.42;97431.19;3866213;23;20058;-55
2021/12/06 02:29:46;;;;;;;2.88;0.52;;;;;;;16.07;66.29;97432.25;3867963;23;20066;-58
2021/12/06 02:31:20;;;;;;;1.45;0.65;;;;;;;16.05;66.46;97430.81;3867524;23;20024;-60
2021/12/06 02:32:53;;;;;;;1.00;0.80;;;;;;;16.04;66.48;97431.84;3867695;22;20031;-53
2021/12/06 02:34:25;;;;;;;1.58;0.90;;;;;;;16.03;66.21;97439.03;3867171;23;20054;-57
2021/12/06 02:35:57;;;;;;;1.13;0.40;;;;;;;16.01;66.23;97433.09;3867239;23;20040;-54
2021/12/06 02:37:34;;;;;;;1.52;0.70;;;;;;;16.00;66.45;97436.00;3866375;23;20020;-55
2021/12/06 02:39:09;;;;;;;1.73;0.68;;;;;;;15.99;66.47;97434.34;3867158;23;20035;-58
2021/12/06 02:40:41;;;;;;;1.58;0.90;;;;;;;15.98;66.52;97427.34;3867691;23;20470;-56
2021/12/06 02:42:15;;;;;;;1.38;0.73;;;;;;;15.97;66.51;97431.06;3867484;23;20502;-53
2021/12/06 02:43:48;;;;;;;1.20;0.73;;;;;;;15.98;66.49;97438.06;3867218;22;20020;-58
2021/12/06 02:45:22;;;;;;;1.40;0.63;;;;;;;15.96;66.63;97432.09;3862852;23;20026;-56
2021/12/06 02:46:53;;;;;;;3.70;0.65;;;;;;;15.95;66.64;97430.47;3868282;23;20024;-59
2021/12/06 02:48:25;;;;;;;2.25;0.93;;;;;;;15.96;66.61;97426.75;3866805;23;20027;-50
2021/12/06 02:49:59;;;;;;;1.38;0.57;;;;;;;15.97;66.67;97428.41;3873415;23;20602;-55
2021/12/06 02:51:31;;;;;;;1.00;0.70;;;;;;;15.98;66.57;97430.84;3867046;23;20028;-56
2021/12/06 02:53:05;;;;;;;1.17;0.68;;;;;;;15.96;66.73;97432.09;3866057;22;20020;-55
2021/12/06 02:54:37;;;;;;;1.10;1.00;;;;;;;15.96;66.81;97432.09;3866783;23;20027;-57
2021/12/06 02:56:28;;;;;;;0.77;0.60;;;;;;;15.97;66.48;97428.41;3866781;23;20339;-56
2021/12/06 02:58:12;;;;;;;1.70;0.60;;;;;;;15.97;66.44;97433.75;3866606;23;20617;-57
2021/12/06 02:59:46;;;;;;;1.77;1.17;;;;;;;15.97;66.47;97431.06;3866770;23;20233;-52
2021/12/06 03:01:26;;;;;;;2.85;0.95;;;;;;;15.96;66.59;97427.56;3864277;23;20032;-59
2021/12/06 03:02:58;;;;;;;0.90;0.70;;;;;;;15.96;66.60;97432.09;3867220;22;20024;-56
2021/12/06 03:04:30;;;;;;;1.13;0.57;;;;;;;15.94;66.55;97428.84;3866274;23;20147;-60
2021/12/06 03:06:02;;;;;;;2.42;0.90;;;;;;;15.93;66.63;97422.63;3866982;23;20031;-57
2021/12/06 03:07:36;;;;;;;1.48;0.55;;;;;;;15.94;66.53;97428.84;3867448;23;20028;-58
2021/12/06 03:09:12;;;;;;;0.98;0.75;;;;;;;15.94;66.50;97428.84;3866166;23;20034;-58
2021/12/06 03:10:44;;;;;;;1.60;0.95;;;;;;;15.93;66.46;97427.19;3866428;23;20040;-51
2021/12/06 03:12:19;;;;;;;1.55;0.60;;;;;;;15.92;66.45;97430.91;3866829;23;20355;-55
2021/12/06 03:13:52;;;;;;;3.70;0.82;;;;;;;15.91;66.47;97424.75;3866735;22;20189;-54
2021/12/06 03:15:24;;;;;;;1.55;0.55;;;;;;;15.90;66.46;97422.25;3865979;23;20020;-57
2021/12/06 03:16:58;;;;;;;4.07;0.80;;;;;;;15.90;66.52;97419.59;3866540;23;20037;-56
2021/12/06 03:18:30;;;;;;;1.23;0.73;;;;;;;15.88;66.58;97421.66;3865555;23;20032;-61
2021/12/06 03:20:06;;;;;;;1.83;0.60;;;;;;;15.89;66.46;97418.78;3865509;23;20022;-57
2021/12/06 03:21:39;;;;;;;1.80;0.68;;;;;;;15.89;66.63;97420.63;3865809;23;20050;-55
2021/12/06 03:23:10;;;;;;;1.40;0.60;;;;;;;15.88;66.60;97418.97;3867005;22;20039;-58
2021/12/06 03:24:45;;;;;;;1.23;0.85;;;;;;;15.85;66.52;97413.03;3866360;23;20031;-54
2021/12/06 03:26:16;;;;;;;0.55;0.50;;;;;;;15.84;66.40;97423.94;3865696;23;20028;-59
2021/12/06 03:27:48;;;;;;;1.70;0.70;;;;;;;15.85;66.61;97428.25;3866440;23;20098;-55
2021/12/06 03:29:21;;;;;;;0.98;0.60;;;;;;;15.85;66.55;97420.22;3866552;23;20328;-58
2021/12/06 03:30:53;;;;;;;1.77;0.73;;;;;;;15.83;66.57;97431.16;3866238;23;20024;-54
2021/12/06 03:32:25;;;;;;;1.05;0.57;;;;;;;15.83;66.64;97433.00;3866787;23;20098;-53
2021/12/06 03:33:58;;;;;;;1.80;0.75;;;;;;;15.83;66.63;97428.47;3866534;22;20410;-58
2021/12/06 03:35:30;;;;;;;1.67;0.50;;;;;;;15.81;66.88;97433.22;3865298;23;20039;-55
2021/12/06 03:37:05;;;;;;;2.78;1.10;;;;;;;15.80;66.67;97431.59;3865014;23;20097;-57
2021/12/06 03:38:38;;;;;;;1.65;0.73;;;;;;;15.80;66.57;97431.59;3866373;23;20016;-56
2021/12/06 03:40:12;;;;;;;1.00;0.80;;;;;;;15.79;66.66;97440.63;3866606;23;20031;-57
2021/12/06 03:41:44;;;;;;;2.47;0.70;;;;;;;15.78;66.79;97440.84;3866770;23;20168;-57
2021/12/06 03:43:16;;;;;;;0.77;0.40;;;;;;;15.78;66.77;97440.84;3866241;22;20272;-57
2021/12/06 03:44:48;;;;;;;0.38;0.38;;;;;;;15.77;66.53;97445.38;3865894;23;20097;-56
2021/12/06 03:46:21;;;;;;;0.80;0.50;;;;;;;15.76;66.59;97449.06;3865112;23;20620;-58
2021/12/06 03:47:54;;;;;;;2.53;1.08;;;;;;;15.77;66.59;97445.38;3867849;23;20035;-52
2021/12/06 03:49:26;;;;;;;1.80;0.95;;;;;;;15.76;66.65;97453.59;3866992;23;20024;-55
2021/12/06 03:50:57;;;;;;;1.13;0.40;;;;;;;15.73;66.67;97444.16;3868605;23;20024;-58
2021/12/06 03:52:29;;;;;;;1.15;0.55;;;;;;;15.71;66.85;97448.06;3868273;23;20114;-56
2021/12/06 03:54:01;;;;;;;3.17;0.85;;;;;;;15.71;66.80;97448.91;3864086;22;20032;-57
2021/12/06 03:55:34;;;;;;;1.88;0.70;;;;;;;15.69;66.69;97442.97;3867197;23;20024;-60
2021/12/06 03:57:07;;;;;;;2.63;0.93;;;;;;;15.70;66.76;97443.78;3867934;23;20050;-58
2021/12/06 03:58:39;;;;;;;2.63;0.43;;;;;;;15.68;67.02;97443.97;3868259;23;20106;-55
2021/12/06 04:00:12;;;;;;;0.95;0.52;;;;;;;15.68;66.79;97452.00;3867804;23;20024;-59
2021/12/06 04:01:46;;;;;;;0.73;0.68;;;;;;;15.68;66.85;97452.00;3866586;23;20031;-53
2021/12/06 04:03:19;;;;;;;2.08;0.60;;;;;;;15.66;66.95;97448.69;3866577;22;20734;-57
2021/12/06 04:04:51;;;;;;;0.60;0.60;;;;;;;15.66;66.89;97459.38;3866277;23;20054;-55
2021/12/06 04:06:23;;;;;;;1.17;0.70;;;;;;;15.64;66.83;97462.25;3867641;23;20458;-57
2021/12/06 04:07:55;;;;;;;0.88;0.50;;;;;;;15.64;66.89;97461.44;3868112;23;20027;-56
2021/12/06 04:09:27;;;;;;;1.33;0.90;;;;;;;15.63;67.01;97462.50;3863003;23;20634;-51
2021/12/06 04:11:00;;;;;;;2.65;0.63;;;;;;;15.62;66.99;97464.31;3868242;23;20076;-53
2021/12/06 04:12:32;;;;;;;1.33;0.80;;;;;;;15.61;67.01;97467.22;3866691;23;20023;-59
2021/12/06 04:14:05;;;;;;;1.52;0.70;;;;;;;15.60;66.83;97470.91;3867790;22;20020;-59
2021/12/06 04:15:40;;;;;;;0.40;0.40;;;;;;;15.59;67.07;97469.28;3866755;23;20468;-52
2021/12/06 04:17:13;;;;;;;1.15;0.63;;;;;;;15.59;66.90;97471.94;3867386;23;20027;-59
2021/12/06 04:18:45;;;;;;;1.13;0.60;;;;;;;15.58;67.19;97478.34;3865754;23;20023;-57
2021/12/06 04:20:18;;;;;;;0.80;0.60;;;;;;;15.56;67.09;97483.06;3867544;23;20032;-58
2021/12/06 04:21:50;;;;;;;1.67;0.40;;;;;;;15.54;67.01;97475.25;3867442;23;20024;-57
2021/12/06 04:23:22;;;;;;;0.63;0.40;;;;;;;15.53;67.11;97473.63;3867008;22;20335;-56
2021/12/06 04:24:54;;;;;;;4.65;1.58;;;;;;;15.53;66.93;97476.28;3867343;23;20082;-56
2021/12/06 04:26:28;;;;;;;0.52;0.50;;;;;;;15.52;67.24;97480.00;3867426;23;20039;-56
2021/12/06 04:28:05;;;;;;;0.68;0.50;;;;;;;15.49;67.28;97485.78;3863929;23;20027;-57
2021/12/06 04:29:37;;;;;;;1.08;0.65;;;;;;;15.50;67.30;97478.56;3867543;23;20074;-57
2021/12/06 04:31:08;;;;;;;;;;;;;;;15.51;67.18;97477.53;3868380;23;20024;-55
2021/12/06 04:32:40;;;;;;;1.52;0.57;;;;;;;15.50;67.43;97478.56;3867189;23;19915;-57
2021/12/06 04:34:12;;;;;;;2.58;0.52;;;;;;;15.52;67.43;97484.53;3865516;22;20501;-57
2021/12/06 04:35:45;;;;;;;0.75;0.70;;;;;;;15.56;67.49;97493.75;3866155;23;20075;-56
2021/12/06 04:37:17;;;;;;;1.52;0.60;;;;;;;15.56;67.27;97491.09;3868150;23;20039;-58
2021/12/06 04:38:49;;;;;;;0.77;0.52;;;;;;;15.57;67.38;97482.88;3866696;23;20028;-55
2021/12/06 04:40:21;;;;;;;1.02;0.80;;;;;;;15.58;67.37;97491.69;3865906;23;20066;-56
2021/12/06 04:41:54;;;;;;;1.33;0.68;;;;;;;15.57;67.28;97488.22;3867803;23;20024;-56
2021/12/06 04:43:26;;;;;;;1.20;0.75;;;;;;;15.58;67.14;97495.19;3864894;22;20027;-57
2021/12/06 04:44:58;;;;;;;0.95;0.50;;;;;;;15.59;67.15;97501.34;3864897;23;20079;-58
2021/12/06 04:46:30;;;;;;;0.73;0.45;;;;;;;15.60;67.13;97493.13;3866661;23;20020;-57
2021/12/06 04:48:02;;;;;;;1.45;0.50;;;;;;;15.59;67.21;97496.00;3866473;23;20024;-57
2021/12/06 04:49:34;;;;;;;1.60;0.60;;;;;;;15.59;67.31;97493.34;3867560;23;20888;-57
2021/12/06 04:51:06;;;;;;;0.73;0.52;;;;;;;15.59;67.32;97486.13;3867490;23;20016;-57
2021/12/06 04:52:39;;;;;;;1.88;0.63;;;;;;;15.58;67.34;97489.03;3867558;23;20031;-57
2021/12/06 04:54:12;;;;;;;1.20;0.52;;;;;;;15.58;67.32;97489.03;3864990;22;20028;-57
2021/12/06 04:55:48;;;;;;;1.35;0.65;;;;;;;15.59;67.08;97490.66;3866824;23;20043;-56
2021/12/06 04:57:25;;;;;;;0.90;0.70;;;;;;;15.58;67.33;97499.72;3867457;23;20024;-55
2021/12/06 04:59:02;;;;;;;1.10;0.40;;;;;;;15.58;67.27;97497.06;3867623;23;20020;-58
2021/12/06 05:00:37;;;;;;;1.15;0.50;;;;;;;15.58;67.13;97491.69;3865949;23;20756;-56
2021/12/06 05:02:18;;;;;;;2.58;0.50;;;;;;;15.56;67.29;97502.59;3865508;23;20836;-58
2021/12/06 05:03:51;;;;;;;0.70;0.45;;;;;;;15.56;67.31;97502.59;3866348;22;20024;-55
2021/12/06 05:05:28;;;;;;;0.95;0.60;;;;;;;15.57;67.18;97501.59;3867029;23;20024;-56
2021/12/06 05:07:04;;;;;;;0.47;0.30;;;;;;;15.59;67.17;97504.84;3867749;23;20024;-57
2021/12/06 05:08:42;;;;;;;0.80;0.73;;;;;;;15.61;67.00;97499.28;3866042;23;20024;-57
2021/12/06 05:10:14;;;;;;;0.85;0.50;;;;;;;15.66;67.26;97499.47;3865598;23;20024;-56
2021/12/06 05:11:47;;;;;;;1.75;0.55;;;;;;;15.72;67.19;97504.00;3867131;23;20020;-55
2021/12/06 05:13:22;;;;;;;1.00;0.65;;;;;;;15.79;66.91;97501.28;3865526;22;20028;-57
2021/12/06 05:14:54;;;;;;;0.68;0.55;;;;;;;15.88;66.81;97499.19;3867069;23;20028;-56
2021/12/06 05:16:26;;;;;;;1.20;0.55;;;;;;;15.96;66.62;97506.97;3864768;23;20137;-56
2021/12/06 05:17:58;;;;;;;2.45;0.40;;;;;;;16.03;66.60;97505.09;3865316;23;20024;-55
2021/12/06 05:19:30;;;;;;;1.10;0.50;;;;;;;16.09;66.52;97506.91;3866426;23;20039;-56
2021/12/06 05:21:03;;;;;;;2.20;0.43;;;;;;;16.16;66.56;97513.06;3867602;23;20020;-58
2021/12/06 05:22:35;;;;;;;1.15;0.52;;;;;;;16.22;66.33;97509.50;3865302;23;20494;-57
2021/12/06 05:24:08;;;;;;;0.47;0.40;;;;;;;16.27;66.23;97515.03;3865822;22;20020;-57
2021/12/06 05:25:40;;;;;;;0.68;0.50;;;;;;;16.32;66.15;97511.69;3865230;23;20035;-55
2021/12/06 05:27:12;;;;;;;0.70;0.55;;;;;;;16.40;66.09;97518.66;3866617;23;20350;-56
2021/12/06 05:28:47;;;;;;;0.63;0.40;;;;;;;16.45;66.01;97516.16;3867220;23;20024;-57
2021/12/06 05:30:21;;;;;;;1.10;0.50;;;;;;;16.52;66.16;97519.63;3865698;23;20052;-57
2021/12/06 05:31:56;;;;;;;0.70;0.40;;;;;;;16.58;66.02;97520.59;3867373;23;20024;-58
2021/12/06 05:33:31;;;;;;;1.48;0.43;;;;;;;16.60;65.96;97527.34;3866157;22;20020;-55
2021/12/06 05:35:07;;;;;;;1.38;0.60;;;;;;;16.65;65.73;97516.81;3861174;23;20082;-58
2021/12/06 05:36:40;;;;;;;1.58;1.02;;;;;;;16.69;65.70;97518.03;3866250;23;20331;-57
2021/12/06 05:38:13;;;;;;;0.82;0.57;;;;;;;16.72;65.67;97522.94;3866183;23;20058;-57
2021/12/06 05:39:45;;;;;;;0.50;0.50;;;;;;;16.78;65.69;97523.16;3874909;23;20023;-55
2021/12/06 05:41:16;;;;;;;0.60;0.43;;;;;;;16.81;65.67;97520.03;3867286;23;20486;-57
2021/12/06 05:42:48;;;;;;;0.57;0.32;;;;;;;16.85;65.77;97522.03;3868570;23;20024;-56
2021/12/06 05:44:22;;;;;;;0.30;0.30;;;;;;;16.89;65.62;97519.75;3866308;23;20024;-56
2021/12/06 05:45:55;;;;;;;1.00;0.50;;;;;;;16.93;65.18;97519.06;3867762;23;20023;-56
2021/12/06 05:47:27;;;;;;;0.98;0.52;;;;;;;16.96;65.31;97517.81;3866985;23;20024;-55
2021/12/06 05:48:58;;;;;;;1.75;0.50;;;;;;;17.00;65.38;97527.06;3868250;23;20024;-56
2021/12/06 05:50:30;;;;;;;0.80;0.40;;;;;;;17.03;65.39;97515.91;3867659;23;20032;-56
2021/12/06 05:52:03;;;;;;;1.85;0.60;;;;;;;17.07;65.32;97527.81;3866124;23;20366;-57
2021/12/06 05:53:35;;;;;;;2.60;0.43;;;;;;;17.10;65.10;97530.06;3863717;22;20815;-57
2021/12/06 05:55:09;;;;;;;1.25;0.82;;;;;;;17.15;65.14;97534.75;3866374;23;20067;-57
2021/12/06 05:56:41;;;;;;;0.60;0.35;;;;;;;17.19;64.94;97533.28;3866332;23;20028;-54
2021/12/06 05:58:15;;;;;;;0.68;0.40;;;;;;;17.23;65.05;97541.69;3867564;23;20024;-57
2021/12/06 05:59:48;;;;;;;0.57;0.40;;;;;;;17.27;65.21;97542.88;3873074;23;20024;-57
2021/12/06 06:01:23;;;;;;;2.20;0.55;;;;;;;17.30;65.01;97550.47;3863064;23;20406;-57
2021/12/06 06:02:55;;;;;;;4.63;0.50;;;;;;;17.32;65.13;97551.09;3865452;22;20021;-58
2021/12/06 06:04:27;;;;;;;2.88;0.95;;;;;;;17.35;65.13;97558.69;3862544;23;20039;-56
2021/12/06 06:05:59;;;;;;;1.33;0.90;;;;;;;17.37;65.04;97556.59;3866549;23;20150;-56
2021/12/06 06:07:31;;;;;;;3.22;1.52;;;;;;;17.39;65.01;97559.88;3863961;23;20090;-57
2021/12/06 06:09:08;;;;;;;2.88;0.95;;;;;;;17.41;64.93;97563.16;3864081;23;20083;-56
2021/12/06 06:10:40;;;;;;;1.83;0.50;;;;;;;17.41;64.89;97565.81;3867635;23;20035;-54
2021/12/06 06:12:11;;;;;;;2.45;0.73;;;;;;;17.43;64.85;97566.44;3867329;23;20024;-55
2021/12/06 06:13:43;;;;;;;1.33;0.82;;;;;;;17.45;64.91;97569.72;3866760;22;20082;-54
2021/12/06 06:15:16;;;;;;;;;;;;;;;17.45;65.00;97564.34;3863013;23;20437;-56
2021/12/06 06:16:51;;;;;;;4.50;0.70;;;;;;;17.45;64.89;97560.88;3867311;23;19930;-55
2021/12/06 06:18:23;;;;;;;4.15;0.75;;;;;;;17.47;64.79;97566.81;3867829;23;20031;-57
2021/12/06 06:19:58;;;;;;;0.90;0.50;;;;;;;17.47;64.80;97564.13;3864976;23;20085;-57
2021/12/06 06:21:30;;;;;;;0.35;0.32;;;;;;;17.47;64.87;97564.97;3867617;23;20328;-55
2021/12/06 06:23:02;;;;;;;7.25;0.80;;;;;;;17.47;64.83;97562.28;3867943;22;20028;-56
2021/12/06 06:24:34;;;;;;;1.50;0.35;;;;;;;17.47;64.85;97562.28;3867250;23;20079;-55
2021/12/06 06:26:05;;;;;;;0.60;0.30;;;;;;;17.48;64.93;97569.28;3865233;23;20020;-57
2021/12/06 06:27:37;;;;;;;5.07;0.68;;;;;;;17.48;64.84;97563.91;3867881;23;20027;-57
2021/12/06 06:29:10;;;;;;;0.70;0.30;;;;;;;17.49;64.80;97567.41;3868503;23;20024;-55
2021/12/06 06:30:44;;;;;;;0.50;0.47;;;;;;;17.47;64.63;97566.81;3868274;23;20020;-53
2021/12/06 06:32:16;;;;;;;0.60;0.30;;;;;;;17.48;64.62;97569.28;3867621;23;20021;-56
2021/12/06 06:33:48;;;;;;;0.80;0.43;;;;;;;17.47;64.78;97577.53;3864335;22;20049;-55
2021/12/06 06:35:20;;;;;;;1.90;0.50;;;;;;;17.48;64.88;97582.69;3866443;23;20086;-55
2021/12/06 06:36:52;;;;;;;1.58;0.43;;;;;;;17.47;64.91;97591.78;3868353;23;20940;-56
2021/12/06 06:38:24;;;;;;;0.88;0.25;;;;;;;17.46;64.86;97586.63;3867657;23;20024;-58
2021/12/06 06:39:56;;;;;;;0.38;0.30;;;;;;;17.45;64.74;97591.16;3868563;23;20411;-55
2021/12/06 06:41:30;;;;;;;2.38;0.30;;;;;;;17.44;64.80;97592.22;3867637;23;20020;-54
2021/12/06 06:43:02;;;;;;;1.13;0.45;;;;;;;17.43;64.82;97590.56;3866931;22;20051;-55
2021/12/06 06:44:34;;;;;;;2.17;0.57;;;;;;;17.43;64.96;97585.19;3865004;23;20024;-53
2021/12/06 06:46:07;;;;;;;1.80;0.82;;;;;;;17.42;64.86;97592.44;3864568;23;20404;-54
2021/12/06 06:47:39;;;;;;;1.13;0.35;;;;;;;17.40;65.00;97585.66;3868363;23;20024;-58
2021/12/06 06:49:12;;;;;;;1.00;0.35;;;;;;;17.40;64.81;97593.69;3867796;23;20074;-58
2021/12/06 06:50:44;;;;;;;2.10;0.90;;;;;;;17.40;64.96;97589.13;3868866;23;20024;-53
2021/12/06 06:52:16;;;;;;;0.50;0.40;;;;;;;17.42;64.75;97596.97;3867730;23;20466;-55
2021/12/06 06:53:48;;;;;;;2.78;0.60;;;;;;;17.43;64.88;97603.97;3867367;22;20414;-55
2021/12/06 06:55:21;;;;;;;0.75;0.50;;;;;;;17.46;64.73;97603.50;3863698;23;20028;-57
2021/12/06 06:56:53;;;;;;;0.93;0.38;;;;;;;17.46;64.70;97608.88;3869271;23;20523;-55
2021/12/06 06:58:25;;;;;;;0.70;0.50;;;;;;;17.50;64.71;97603.91;3868652;23;20024;-57
2021/12/06 06:59:57;;;;;;;0.93;0.50;;;;;;;17.50;64.66;97596.69;3868453;23;20734;-57
2021/12/06 07:01:30;;;;;;;4.32;0.60;;;;;;;17.52;64.68;97599.13;3864091;23;20300;-54
2021/12/06 07:03:04;;;;;;;1.23;0.63;;;;;;;17.54;65.03;97608.59;3867957;22;20020;-56
2021/12/06 07:04:36;;;;;;;0.98;0.50;;;;;;;17.55;64.73;97604.03;3867815;23;20035;-54
2021/12/06 07:06:08;;;;;;;3.90;1.45;;;;;;;17.55;64.76;97607.56;3868530;23;20024;-55
2021/12/06 07:07:40;;;;;;;1.25;0.32;;;;;;;17.54;64.82;97600.56;3868343;23;20597;-53
2021/12/06 07:09:12;;;;;;;1.30;0.47;;;;;;;17.53;64.75;97596.25;3860743;23;20024;-57
2021/12/06 07:10:48;;;;;;;1.67;0.40;;;;;;;17.54;64.64;97608.59;3866646;23;20075;-55
2021/12/06 07:12:20;;;;;;;0.40;0.22;;;;;;;17.55;64.70;97607.56;3860867;23;20028;-55
2021/12/06 07:13:52;;;;;;;0.35;0.35;;;;;;;17.54;64.86;97611.28;3865036;22;20086;-55
2021/12/06 07:15:26;;;;;;;1.60;0.60;;;;;;;17.54;64.60;97611.28;3866862;23;20020;-55
2021/12/06 07:16:59;;;;;;;2.42;0.50;;;;;;;17.53;64.79;97620.38;3867218;23;20028;-55
2021/12/06 07:18:31;;;;;;;0.45;0.40;;;;;;;17.53;64.87;97625.72;3865527;23;20024;-55
2021/12/06 07:20:04;;;;;;;0.57;0.40;;;;;;;17.54;64.66;97632.72;3867306;23;20020;-57
2021/12/06 07:21:36;;;;;;;1.38;1.08;;;;;;;17.53;64.82;97624.91;3863595;23;20017;-57
2021/12/06 07:23:09;;;;;;;1.58;0.35;;;;;;;17.54;64.91;97634.59;3867114;22;20027;-54
2021/12/06 07:24:41;;;;;;;3.53;0.52;;;;;;;17.53;64.96;97636.47;3866710;23;20799;-56
2021/12/06 07:26:16;;;;;;;0.73;0.22;;;;;;;17.53;64.88;97636.47;3866548;23;20358;-54